sensor_id;sensor_type;location;lat;lon;timestamp;pressure;altitude;pressure_sealevel;temperature;humidity
57574;BME280;68988;49.000;21.242;2023-07-13T00:01:15;98358.31;;;27.54;47.97
57574;BME280;68988;49.000;21.242;2023-07-13T00:03:41;98354.34;;;27.51;47.95
57574;BME280;68988;49.000;21.242;2023-07-13T00:06:07;98356.72;;;27.53;47.96
57574;BME280;68988;49.000;21.242;2023-07-13T00:08:33;98356.13;;;27.56;48.06
57574;BME280;68988;49.000;21.242;2023-07-13T00:11:03;98354.03;;;27.53;47.83
57574;BME280;68988;49.000;21.242;2023-07-13T00:13:29;98363.09;;;27.57;48.08
57574;BME280;68988;49.000;21.242;2023-07-13T00:15:57;98366.19;;;27.50;48.32
57574;BME280;68988;49.000;21.242;2023-07-13T00:18:23;98368.41;;;27.62;47.73
57574;BME280;68988;49.000;21.242;2023-07-13T00:20:48;98363.09;;;27.57;47.73
57574;BME280;68988;49.000;21.242;2023-07-13T00:23:14;98369.59;;;27.56;47.80
57574;BME280;68988;49.000;21.242;2023-07-13T00:25:39;98371.47;;;27.56;47.95
57574;BME280;68988;49.000;21.242;2023-07-13T00:28:05;98357.22;;;27.55;47.74
57574;BME280;68988;49.000;21.242;2023-07-13T00:30:30;98357.72;;;27.57;47.62
57574;BME280;68988;49.000;21.242;2023-07-13T00:32:56;98355.53;;;27.59;47.55
57574;BME280;68988;49.000;21.242;2023-07-13T00:35:21;98356.13;;;27.56;47.46
57574;BME280;68988;49.000;21.242;2023-07-13T00:37:47;98365.78;;;27.57;47.63
57574;BME280;68988;49.000;21.242;2023-07-13T00:40:13;98376.06;;;27.55;47.28
57574;BME280;68988;49.000;21.242;2023-07-13T00:42:40;98373.56;;;27.59;47.60
57574;BME280;68988;49.000;21.242;2023-07-13T00:47:40;98365.09;;;27.51;47.41
57574;BME280;68988;49.000;21.242;2023-07-13T00:50:08;98359.91;;;27.55;47.57
57574;BME280;68988;49.000;21.242;2023-07-13T00:52:36;98365.88;;;27.52;47.41
57574;BME280;68988;49.000;21.242;2023-07-13T00:55:03;98353.50;;;27.51;47.21
57574;BME280;68988;49.000;21.242;2023-07-13T00:57:28;98355.13;;;27.52;47.32
57574;BME280;68988;49.000;21.242;2023-07-13T00:59:58;98352.91;;;27.54;47.16
57574;BME280;68988;49.000;21.242;2023-07-13T01:02:25;98344.94;;;27.49;47.66
57574;BME280;68988;49.000;21.242;2023-07-13T01:04:51;98339.75;;;27.52;47.56
57574;BME280;68988;49.000;21.242;2023-07-13T01:07:18;98335.66;;;27.55;47.14
57574;BME280;68988;49.000;21.242;2023-07-13T01:09:44;98333.88;;;27.50;47.47
57574;BME280;68988;49.000;21.242;2023-07-13T01:12:10;98344.66;;;27.50;47.48
57574;BME280;68988;49.000;21.242;2023-07-13T01:14:35;98344.34;;;27.52;47.46
57574;BME280;68988;49.000;21.242;2023-07-13T01:17:01;98332.28;;;27.49;47.29
57574;BME280;68988;49.000;21.242;2023-07-13T01:19:36;98341.66;;;27.52;47.32
57574;BME280;68988;49.000;21.242;2023-07-13T01:22:04;98347.63;;;27.49;47.40
57574;BME280;68988;49.000;21.242;2023-07-13T01:24:35;98345.53;;;27.46;47.38
57574;BME280;68988;49.000;21.242;2023-07-13T01:27:01;98347.94;;;27.47;47.12
57574;BME280;68988;49.000;21.242;2023-07-13T01:29:27;98355.53;;;27.45;47.48
57574;BME280;68988;49.000;21.242;2023-07-13T01:31:52;98345.72;;;27.49;47.23
57574;BME280;68988;49.000;21.242;2023-07-13T01:34:17;98347.63;;;27.49;47.43
57574;BME280;68988;49.000;21.242;2023-07-13T01:36:43;98344.44;;;27.47;47.49
57574;BME280;68988;49.000;21.242;2023-07-13T01:39:08;98348.34;;;27.41;47.60
57574;BME280;68988;49.000;21.242;2023-07-13T01:41:33;98354.81;;;27.40;47.61
57574;BME280;68988;49.000;21.242;2023-07-13T01:43:59;98354.22;;;27.43;47.62
57574;BME280;68988;49.000;21.242;2023-07-13T01:46:24;98361.28;;;27.39;47.28
57574;BME280;68988;49.000;21.242;2023-07-13T01:48:50;98365.28;;;27.41;47.23
57574;BME280;68988;49.000;21.242;2023-07-13T01:51:18;98366.06;;;27.42;47.24
57574;BME280;68988;49.000;21.242;2023-07-13T01:53:43;98360.69;;;27.42;47.15
57574;BME280;68988;49.000;21.242;2023-07-13T01:56:08;98352.13;;;27.40;47.29
57574;BME280;68988;49.000;21.242;2023-07-13T01:58:34;98345.13;;;27.39;47.40
57574;BME280;68988;49.000;21.242;2023-07-13T02:00:59;98340.25;;;27.41;47.41
57574;BME280;68988;49.000;21.242;2023-07-13T02:03:24;98338.16;;;27.38;47.40
57574;BME280;68988;49.000;21.242;2023-07-13T02:05:50;98336.44;;;27.42;47.00
57574;BME280;68988;49.000;21.242;2023-07-13T02:08:15;98332.19;;;27.41;47.20
57574;BME280;68988;49.000;21.242;2023-07-13T02:10:40;98332.19;;;27.41;47.09
57574;BME280;68988;49.000;21.242;2023-07-13T02:13:06;98330.47;;;27.45;46.82
57574;BME280;68988;49.000;21.242;2023-07-13T02:15:31;98326.19;;;27.44;46.89
57574;BME280;68988;49.000;21.242;2023-07-13T02:17:57;98325.19;;;27.40;47.08
57574;BME280;68988;49.000;21.242;2023-07-13T02:20:24;98325.47;;;27.38;47.14
57574;BME280;68988;49.000;21.242;2023-07-13T02:22:49;98331.34;;;27.40;46.98
57574;BME280;68988;49.000;21.242;2023-07-13T02:25:15;98327.78;;;27.45;47.02
57574;BME280;68988;49.000;21.242;2023-07-13T02:27:40;98333.97;;;27.45;46.86
57574;BME280;68988;49.000;21.242;2023-07-13T02:30:06;98331.16;;;27.37;46.90
57574;BME280;68988;49.000;21.242;2023-07-13T02:32:32;98340.03;;;27.37;47.18
57574;BME280;68988;49.000;21.242;2023-07-13T02:34:59;98351.91;;;27.36;47.16
57574;BME280;68988;49.000;21.242;2023-07-13T02:37:24;98365.88;;;27.38;47.15
57574;BME280;68988;49.000;21.242;2023-07-13T02:39:50;98388.44;;;27.42;47.08
57574;BME280;68988;49.000;21.242;2023-07-13T02:42:15;98395.97;;;27.40;46.90
57574;BME280;68988;49.000;21.242;2023-07-13T02:44:41;98396.22;;;27.44;47.05
57574;BME280;68988;49.000;21.242;2023-07-13T02:47:06;98397.09;;;27.39;47.03
57574;BME280;68988;49.000;21.242;2023-07-13T02:49:32;98395.78;;;27.37;46.96
57574;BME280;68988;49.000;21.242;2023-07-13T02:51:57;98407.16;;;27.33;47.04
57574;BME280;68988;49.000;21.242;2023-07-13T02:54:22;98391.13;;;27.42;47.10
57574;BME280;68988;49.000;21.242;2023-07-13T02:56:48;98398.38;;;27.42;46.84
57574;BME280;68988;49.000;21.242;2023-07-13T02:59:14;98395.28;;;27.35;47.06
57574;BME280;68988;49.000;21.242;2023-07-13T03:01:39;98382.13;;;27.33;47.50
57574;BME280;68988;49.000;21.242;2023-07-13T03:04:05;98356.47;;;27.36;46.99
57574;BME280;68988;49.000;21.242;2023-07-13T03:06:32;98369.44;;;27.33;47.23
57574;BME280;68988;49.000;21.242;2023-07-13T03:08:58;98366.28;;;27.31;47.28
57574;BME280;68988;49.000;21.242;2023-07-13T03:11:25;98355.50;;;27.31;47.42
57574;BME280;68988;49.000;21.242;2023-07-13T03:13:51;98360.88;;;27.31;47.49
57574;BME280;68988;49.000;21.242;2023-07-13T03:16:17;98351.69;;;27.32;47.12
57574;BME280;68988;49.000;21.242;2023-07-13T03:18:42;98348.47;;;27.30;47.14
57574;BME280;68988;49.000;21.242;2023-07-13T03:21:08;98342.03;;;27.31;47.22
57574;BME280;68988;49.000;21.242;2023-07-13T03:23:34;98358.47;;;27.30;47.04
57574;BME280;68988;49.000;21.242;2023-07-13T03:26:05;98364.56;;;27.36;47.24
57574;BME280;68988;49.000;21.242;2023-07-13T03:28:31;98369.94;;;27.36;46.91
57574;BME280;68988;49.000;21.242;2023-07-13T03:31:11;98369.88;;;27.41;47.15
57574;BME280;68988;49.000;21.242;2023-07-13T03:33:37;98356.13;;;27.42;46.69
57574;BME280;68988;49.000;21.242;2023-07-13T03:36:06;98349.91;;;27.42;47.22
57574;BME280;68988;49.000;21.242;2023-07-13T03:38:32;98354.09;;;27.34;47.25
57574;BME280;68988;49.000;21.242;2023-07-13T03:40:58;98349.53;;;27.35;47.37
57574;BME280;68988;49.000;21.242;2023-07-13T03:43:23;98361.88;;;27.36;47.49
57574;BME280;68988;49.000;21.242;2023-07-13T03:45:49;98364.56;;;27.36;47.49
57574;BME280;68988;49.000;21.242;2023-07-13T03:48:14;98357.31;;;27.36;47.11
57574;BME280;68988;49.000;21.242;2023-07-13T03:50:40;98371.44;;;27.42;46.96
57574;BME280;68988;49.000;21.242;2023-07-13T03:53:06;98364.56;;;27.36;47.66
57574;BME280;68988;49.000;21.242;2023-07-13T03:55:31;98351.09;;;27.36;47.43
57574;BME280;68988;49.000;21.242;2023-07-13T03:58:23;98342.44;;;27.39;47.43
57574;BME280;68988;49.000;21.242;2023-07-13T04:00:49;98338.94;;;27.38;47.53
57574;BME280;68988;49.000;21.242;2023-07-13T04:03:15;98341.47;;;27.29;47.58
57574;BME280;68988;49.000;21.242;2023-07-13T04:05:41;98356.06;;;27.28;47.82
57574;BME280;68988;49.000;21.242;2023-07-13T04:08:07;98357.91;;;27.33;47.63
57574;BME280;68988;49.000;21.242;2023-07-13T04:10:32;98364.06;;;27.33;47.88
57574;BME280;68988;49.000;21.242;2023-07-13T04:12:57;98366.28;;;27.31;47.98
57574;BME280;68988;49.000;21.242;2023-07-13T04:15:23;98363.47;;;27.37;47.81
57574;BME280;68988;49.000;21.242;2023-07-13T04:17:48;98367.06;;;27.32;48.15
57574;BME280;68988;49.000;21.242;2023-07-13T04:20:13;98352.25;;;27.29;48.03
57574;BME280;68988;49.000;21.242;2023-07-13T04:22:39;98376.00;;;27.27;48.39
57574;BME280;68988;49.000;21.242;2023-07-13T04:25:04;98377.97;;;27.22;48.12
57574;BME280;68988;49.000;21.242;2023-07-13T04:27:30;98380.34;;;27.23;48.16
57574;BME280;68988;49.000;21.242;2023-07-13T04:29:55;98389.13;;;27.15;48.86
57574;BME280;68988;49.000;21.242;2023-07-13T04:32:21;98397.88;;;27.07;49.02
57574;BME280;68988;49.000;21.242;2023-07-13T04:34:46;98402.06;;;27.13;48.50
57574;BME280;68988;49.000;21.242;2023-07-13T04:37:11;98408.25;;;27.13;49.06
57574;BME280;68988;49.000;21.242;2023-07-13T04:39:37;98402.97;;;27.08;49.26
57574;BME280;68988;49.000;21.242;2023-07-13T04:42:03;98400.69;;;26.39;51.50
57574;BME280;68988;49.000;21.242;2023-07-13T04:44:29;98404.59;;;25.80;54.12
57574;BME280;68988;49.000;21.242;2023-07-13T04:46:54;98406.78;;;25.48;55.39
57574;BME280;68988;49.000;21.242;2023-07-13T04:49:19;98401.53;;;25.33;56.29
57574;BME280;68988;49.000;21.242;2023-07-13T04:51:45;98390.34;;;25.55;55.67
57574;BME280;68988;49.000;21.242;2023-07-13T04:54:10;98394.03;;;25.35;56.46
57574;BME280;68988;49.000;21.242;2023-07-13T04:56:36;98393.25;;;24.90;58.63
57574;BME280;68988;49.000;21.242;2023-07-13T04:59:01;98387.09;;;24.89;59.00
57574;BME280;68988;49.000;21.242;2023-07-13T05:01:27;98380.84;;;24.64;59.86
57574;BME280;68988;49.000;21.242;2023-07-13T05:03:52;98369.72;;;24.37;61.01
57574;BME280;68988;49.000;21.242;2023-07-13T05:06:18;98360.91;;;24.26;61.44
57574;BME280;68988;49.000;21.242;2023-07-13T05:08:43;98372.25;;;24.07;63.00
57574;BME280;68988;49.000;21.242;2023-07-13T05:11:08;98366.44;;;23.90;63.86
57574;BME280;68988;49.000;21.242;2023-07-13T05:13:34;98363.97;;;24.04;63.58
57574;BME280;68988;49.000;21.242;2023-07-13T05:16:02;98356.78;;;23.84;64.63
57574;BME280;68988;49.000;21.242;2023-07-13T05:18:28;98355.72;;;23.90;64.56
57574;BME280;68988;49.000;21.242;2023-07-13T05:20:58;98342.63;;;23.88;64.72
57574;BME280;68988;49.000;21.242;2023-07-13T05:23:23;98345.00;;;23.80;65.59
57574;BME280;68988;49.000;21.242;2023-07-13T05:25:48;98350.38;;;23.90;65.34
57574;BME280;68988;49.000;21.242;2023-07-13T05:28:14;98354.13;;;23.89;65.59
57574;BME280;68988;49.000;21.242;2023-07-13T05:30:39;98350.91;;;23.87;65.90
57574;BME280;68988;49.000;21.242;2023-07-13T05:33:04;98344.50;;;23.77;66.37
57574;BME280;68988;49.000;21.242;2023-07-13T05:35:30;98342.91;;;23.71;67.04
57574;BME280;68988;49.000;21.242;2023-07-13T05:37:55;98344.00;;;23.65;67.23
57574;BME280;68988;49.000;21.242;2023-07-13T05:40:20;98358.94;;;23.76;67.38
57574;BME280;68988;49.000;21.242;2023-07-13T05:42:46;98367.22;;;23.90;66.69
57574;BME280;68988;49.000;21.242;2023-07-13T05:45:11;98362.72;;;23.65;67.52
57574;BME280;68988;49.000;21.242;2023-07-13T05:47:36;98357.38;;;23.65;67.49
57574;BME280;68988;49.000;21.242;2023-07-13T05:50:02;98374.47;;;23.85;67.00
57574;BME280;68988;49.000;21.242;2023-07-13T05:52:27;98375.03;;;23.87;66.99
57574;BME280;68988;49.000;21.242;2023-07-13T05:54:53;98373.59;;;24.05;66.57
57574;BME280;68988;49.000;21.242;2023-07-13T05:57:18;98380.03;;;24.09;66.37
57574;BME280;68988;49.000;21.242;2023-07-13T05:59:43;98383.75;;;24.08;66.93
57574;BME280;68988;49.000;21.242;2023-07-13T06:02:10;98389.53;;;24.41;65.52
57574;BME280;68988;49.000;21.242;2023-07-13T06:04:36;98387.59;;;24.52;65.51
57574;BME280;68988;49.000;21.242;2023-07-13T06:07:01;98396.38;;;24.67;65.14
57574;BME280;68988;49.000;21.242;2023-07-13T06:09:26;98395.53;;;24.72;65.04
57574;BME280;68988;49.000;21.242;2023-07-13T06:11:52;98391.22;;;24.76;65.03
57574;BME280;68988;49.000;21.242;2023-07-13T06:14:17;98398.00;;;25.03;64.19
57574;BME280;68988;49.000;21.242;2023-07-13T06:16:43;98386.59;;;25.22;63.71
57574;BME280;68988;49.000;21.242;2023-07-13T06:19:08;98386.63;;;25.16;63.48
57574;BME280;68988;49.000;21.242;2023-07-13T06:21:33;98380.63;;;25.30;63.35
57574;BME280;68988;49.000;21.242;2023-07-13T06:23:59;98386.44;;;25.42;62.81
57574;BME280;68988;49.000;21.242;2023-07-13T06:26:24;98370.09;;;25.38;63.15
57574;BME280;68988;49.000;21.242;2023-07-13T06:28:50;98375.00;;;25.26;64.21
57574;BME280;68988;49.000;21.242;2023-07-13T06:31:18;98369.97;;;25.19;63.79
57574;BME280;68988;49.000;21.242;2023-07-13T06:33:44;98362.66;;;25.25;64.19
57574;BME280;68988;49.000;21.242;2023-07-13T06:36:09;98350.03;;;25.31;64.07
57574;BME280;68988;49.000;21.242;2023-07-13T06:38:35;98355.78;;;25.48;63.21
57574;BME280;68988;49.000;21.242;2023-07-13T06:41:01;98354.13;;;25.52;63.04
57574;BME280;68988;49.000;21.242;2023-07-13T06:43:26;98354.63;;;25.30;63.79
57574;BME280;68988;49.000;21.242;2023-07-13T06:45:55;98356.97;;;25.37;63.72
57574;BME280;68988;49.000;21.242;2023-07-13T06:48:20;98355.41;;;25.31;64.19
57574;BME280;68988;49.000;21.242;2023-07-13T06:50:49;98363.66;;;25.40;63.80
57574;BME280;68988;49.000;21.242;2023-07-13T06:53:15;98370.03;;;25.44;64.05
57574;BME280;68988;49.000;21.242;2023-07-13T06:55:43;98370.16;;;25.33;63.87
57574;BME280;68988;49.000;21.242;2023-07-13T06:58:09;98359.47;;;25.23;64.79
57574;BME280;68988;49.000;21.242;2023-07-13T07:00:34;98366.75;;;25.17;64.97
57574;BME280;68988;49.000;21.242;2023-07-13T07:02:59;98355.06;;;25.37;64.12
57574;BME280;68988;49.000;21.242;2023-07-13T07:05:25;98348.53;;;25.49;63.37
57574;BME280;68988;49.000;21.242;2023-07-13T07:07:51;98348.13;;;25.61;62.89
57574;BME280;68988;49.000;21.242;2023-07-13T07:10:18;98343.72;;;25.70;63.27
57574;BME280;68988;49.000;21.242;2023-07-13T07:12:43;98326.44;;;25.81;62.18
57574;BME280;68988;49.000;21.242;2023-07-13T07:15:09;98320.47;;;25.84;62.54
57574;BME280;68988;49.000;21.242;2023-07-13T07:17:35;98310.75;;;25.88;62.15
57574;BME280;68988;49.000;21.242;2023-07-13T07:20:00;98313.25;;;26.04;61.75
57574;BME280;68988;49.000;21.242;2023-07-13T07:22:26;98320.13;;;26.15;61.39
57574;BME280;68988;49.000;21.242;2023-07-13T07:24:53;98313.63;;;26.16;60.82
57574;BME280;68988;49.000;21.242;2023-07-13T07:27:18;98306.59;;;26.20;60.93
57574;BME280;68988;49.000;21.242;2023-07-13T07:29:44;98297.88;;;26.29;61.00
57574;BME280;68988;49.000;21.242;2023-07-13T07:32:09;98296.22;;;26.33;60.25
57574;BME280;68988;49.000;21.242;2023-07-13T07:34:35;98295.34;;;26.37;60.21
57574;BME280;68988;49.000;21.242;2023-07-13T07:37:01;98289.75;;;26.53;59.69
57574;BME280;68988;49.000;21.242;2023-07-13T07:39:27;98284.66;;;26.51;59.44
57574;BME280;68988;49.000;21.242;2023-07-13T07:41:52;98284.28;;;26.58;60.01
57574;BME280;68988;49.000;21.242;2023-07-13T07:44:18;98278.69;;;26.54;59.99
57574;BME280;68988;49.000;21.242;2023-07-13T07:46:43;98280.16;;;26.66;59.44
57574;BME280;68988;49.000;21.242;2023-07-13T07:49:09;98271.31;;;26.60;60.01
57574;BME280;68988;49.000;21.242;2023-07-13T07:51:34;98277.50;;;26.60;59.92
57574;BME280;68988;49.000;21.242;2023-07-13T07:53:59;98272.63;;;26.62;60.33
57574;BME280;68988;49.000;21.242;2023-07-13T07:56:25;98270.16;;;26.66;59.88
57574;BME280;68988;49.000;21.242;2023-07-13T07:58:50;98274.19;;;26.69;59.90
57574;BME280;68988;49.000;21.242;2023-07-13T08:01:16;98270.69;;;26.68;60.46
57574;BME280;68988;49.000;21.242;2023-07-13T08:03:44;98269.38;;;26.66;59.77
57574;BME280;68988;49.000;21.242;2023-07-13T08:06:10;98269.38;;;26.66;59.97
57574;BME280;68988;49.000;21.242;2023-07-13T08:08:36;98261.81;;;26.68;59.72
57574;BME280;68988;49.000;21.242;2023-07-13T08:11:06;98258.16;;;26.58;60.43
57574;BME280;68988;49.000;21.242;2023-07-13T08:13:32;98260.75;;;26.50;60.64
57574;BME280;68988;49.000;21.242;2023-07-13T08:15:57;98253.31;;;26.41;61.10
57574;BME280;68988;49.000;21.242;2023-07-13T08:18:24;98255.81;;;26.38;61.28
57574;BME280;68988;49.000;21.242;2023-07-13T08:20:49;98251.91;;;26.30;61.37
57574;BME280;68988;49.000;21.242;2023-07-13T08:23:14;98244.06;;;26.34;61.22
57574;BME280;68988;49.000;21.242;2023-07-13T08:25:42;98250.00;;;26.50;60.66
57574;BME280;68988;49.000;21.242;2023-07-13T08:28:07;98252.09;;;26.53;61.55
57574;BME280;68988;49.000;21.242;2023-07-13T08:30:32;98262.56;;;26.54;61.26
57574;BME280;68988;49.000;21.242;2023-07-13T08:32:58;98257.38;;;26.58;61.21
57574;BME280;68988;49.000;21.242;2023-07-13T08:35:23;98253.13;;;26.38;61.58
57574;BME280;68988;49.000;21.242;2023-07-13T08:37:51;98251.16;;;26.43;61.67
57574;BME280;68988;49.000;21.242;2023-07-13T08:40:17;98242.28;;;26.43;62.38
57574;BME280;68988;49.000;21.242;2023-07-13T08:42:46;98247.28;;;26.17;62.76
57574;BME280;68988;49.000;21.242;2023-07-13T08:48:04;98250.84;;;26.12;62.94
57574;BME280;68988;49.000;21.242;2023-07-13T08:50:42;98237.59;;;25.97;63.91
57574;BME280;68988;49.000;21.242;2023-07-13T08:53:14;98253.81;;;26.11;63.55
57574;BME280;68988;49.000;21.242;2023-07-13T08:55:40;98243.84;;;26.11;63.34
57574;BME280;68988;49.000;21.242;2023-07-13T08:58:11;98250.97;;;26.02;63.61
57574;BME280;68988;49.000;21.242;2023-07-13T09:03:30;98262.81;;;26.20;62.88
57574;BME280;68988;49.000;21.242;2023-07-13T09:06:02;98253.88;;;26.24;63.04
57574;BME280;68988;49.000;21.242;2023-07-13T09:09:01;98261.69;;;26.40;62.16
57574;BME280;68988;49.000;21.242;2023-07-13T09:16:58;98239.38;;;26.39;61.43
57574;BME280;68988;49.000;21.242;2023-07-13T09:19:28;98242.38;;;26.38;62.46
57574;BME280;68988;49.000;21.242;2023-07-13T09:21:55;98239.78;;;26.33;62.89
57574;BME280;68988;49.000;21.242;2023-07-13T09:26:50;98240.44;;;26.24;63.23
57574;BME280;68988;49.000;21.242;2023-07-13T09:29:27;98245.72;;;26.30;63.31
57574;BME280;68988;49.000;21.242;2023-07-13T09:31:57;98235.72;;;26.16;63.78
57574;BME280;68988;49.000;21.242;2023-07-13T09:34:25;98232.72;;;26.18;63.83
57574;BME280;68988;49.000;21.242;2023-07-13T09:36:50;98234.72;;;26.12;63.93
57574;BME280;68988;49.000;21.242;2023-07-13T09:39:31;98232.44;;;26.19;63.36
57574;BME280;68988;49.000;21.242;2023-07-13T09:42:15;98233.47;;;26.23;63.66
57574;BME280;68988;49.000;21.242;2023-07-13T09:47:26;98219.53;;;26.21;63.84
57574;BME280;68988;49.000;21.242;2023-07-13T09:50:00;98206.22;;;26.11;64.76
57574;BME280;68988;49.000;21.242;2023-07-13T09:52:27;98205.78;;;26.04;65.49
57574;BME280;68988;49.000;21.242;2023-07-13T09:54:54;98201.00;;;26.01;65.37
57574;BME280;68988;49.000;21.242;2023-07-13T09:57:26;98202.78;;;25.86;66.59
57574;BME280;68988;49.000;21.242;2023-07-13T09:59:54;98173.69;;;25.94;66.86
57574;BME280;68988;49.000;21.242;2023-07-13T10:02:34;98157.56;;;25.94;67.05
57574;BME280;68988;49.000;21.242;2023-07-13T10:05:05;98150.00;;;25.96;67.71
57574;BME280;68988;49.000;21.242;2023-07-13T10:07:32;98173.16;;;25.91;68.09
57574;BME280;68988;49.000;21.242;2023-07-13T10:09:59;98183.63;;;25.93;68.95
57574;BME280;68988;49.000;21.242;2023-07-13T10:12:30;98193.28;;;25.94;68.19
57574;BME280;68988;49.000;21.242;2023-07-13T10:15:01;98194.75;;;25.86;68.66
57574;BME280;68988;49.000;21.242;2023-07-13T10:17:32;98194.16;;;25.89;68.98
57574;BME280;68988;49.000;21.242;2023-07-13T10:20:01;98189.81;;;25.94;68.64
57574;BME280;68988;49.000;21.242;2023-07-13T10:25:17;98182.34;;;25.90;69.06
57574;BME280;68988;49.000;21.242;2023-07-13T10:27:43;98197.34;;;25.91;68.08
57574;BME280;68988;49.000;21.242;2023-07-13T10:30:22;98211.88;;;25.90;68.21
57574;BME280;68988;49.000;21.242;2023-07-13T10:32:51;98221.03;;;25.89;68.66
57574;BME280;68988;49.000;21.242;2023-07-13T10:35:19;98219.22;;;25.85;68.50
57574;BME280;68988;49.000;21.242;2023-07-13T10:38:07;98222.09;;;25.88;68.45
57574;BME280;68988;49.000;21.242;2023-07-13T10:41:04;98229.16;;;25.84;68.12
57574;BME280;68988;49.000;21.242;2023-07-13T10:43:43;98233.81;;;25.98;67.02
57574;BME280;68988;49.000;21.242;2023-07-13T10:46:11;98250.56;;;25.89;67.33
57574;BME280;68988;49.000;21.242;2023-07-13T10:48:39;98252.22;;;25.85;67.59
57574;BME280;68988;49.000;21.242;2023-07-13T10:51:06;98257.47;;;25.96;66.71
57574;BME280;68988;49.000;21.242;2023-07-13T10:53:37;98253.94;;;26.00;66.09
57574;BME280;68988;49.000;21.242;2023-07-13T10:56:05;98252.63;;;25.98;65.85
57574;BME280;68988;49.000;21.242;2023-07-13T10:58:34;98258.00;;;25.98;66.28
57574;BME280;68988;49.000;21.242;2023-07-13T11:01:15;98257.47;;;25.96;66.75
57574;BME280;68988;49.000;21.242;2023-07-13T11:03:49;98251.25;;;26.00;66.98
57574;BME280;68988;49.000;21.242;2023-07-13T11:06:42;98253.56;;;26.07;66.78
57574;BME280;68988;49.000;21.242;2023-07-13T11:11:47;98257.94;;;26.03;66.26
57574;BME280;68988;49.000;21.242;2023-07-13T11:14:29;98263.97;;;26.14;66.14
57574;BME280;68988;49.000;21.242;2023-07-13T11:16:55;98255.19;;;26.08;66.26
57574;BME280;68988;49.000;21.242;2023-07-13T11:30:08;98250.38;;;26.24;65.04
57574;BME280;68988;49.000;21.242;2023-07-13T11:32:34;98252.47;;;26.27;66.01
57574;BME280;68988;49.000;21.242;2023-07-13T11:35:00;98248.41;;;26.30;65.89
57574;BME280;68988;49.000;21.242;2023-07-13T11:37:26;98253.22;;;26.33;65.18
57574;BME280;68988;49.000;21.242;2023-07-13T11:39:53;98253.41;;;26.36;65.67
57574;BME280;68988;49.000;21.242;2023-07-13T11:42:20;98253.63;;;26.40;63.41
57574;BME280;68988;49.000;21.242;2023-07-13T11:44:48;98240.31;;;26.49;64.33
57574;BME280;68988;49.000;21.242;2023-07-13T11:47:19;98239.81;;;26.47;64.24
57574;BME280;68988;49.000;21.242;2023-07-13T11:49:53;98241.09;;;26.49;64.66
57574;BME280;68988;49.000;21.242;2023-07-13T11:52:39;98237.84;;;26.52;64.97
57574;BME280;68988;49.000;21.242;2023-07-13T11:55:14;98233.47;;;26.56;64.61
57574;BME280;68988;49.000;21.242;2023-07-13T11:57:45;98237.25;;;26.55;65.44
57574;BME280;68988;49.000;21.242;2023-07-13T12:00:21;98227.06;;;26.52;65.23
57574;BME280;68988;49.000;21.242;2023-07-13T12:02:52;98218.94;;;26.57;65.41
57574;BME280;68988;49.000;21.242;2023-07-13T12:05:19;98214.94;;;26.55;64.98
57574;BME280;68988;49.000;21.242;2023-07-13T12:07:46;98217.84;;;26.58;63.53
57574;BME280;68988;49.000;21.242;2023-07-13T12:12:53;98215.78;;;26.69;63.30
57574;BME280;68988;49.000;21.242;2023-07-13T12:15:20;98204.25;;;26.69;60.66
57574;BME280;68988;49.000;21.242;2023-07-13T12:17:48;98214.41;;;26.72;64.05
57574;BME280;68988;49.000;21.242;2023-07-13T12:20:37;98212.63;;;26.81;60.93
57574;BME280;68988;49.000;21.242;2023-07-13T12:23:06;98211.13;;;26.75;63.09
57574;BME280;68988;49.000;21.242;2023-07-13T12:25:36;98208.88;;;26.82;61.44
57574;BME280;68988;49.000;21.242;2023-07-13T12:29:05;98207.38;;;26.90;61.91
57574;BME280;68988;49.000;21.242;2023-07-13T12:31:08;98207.97;;;26.87;62.16
57574;BME280;68988;49.000;21.242;2023-07-13T12:33:44;98203.38;;;26.87;62.35
57574;BME280;68988;49.000;21.242;2023-07-13T12:36:10;98202.31;;;26.88;62.06
57574;BME280;68988;49.000;21.242;2023-07-13T12:38:37;98200.28;;;26.94;62.31
57574;BME280;68988;49.000;21.242;2023-07-13T12:41:02;98214.16;;;27.01;61.64
57574;BME280;68988;49.000;21.242;2023-07-13T12:43:32;98217.34;;;27.03;62.29
57574;BME280;68988;49.000;21.242;2023-07-13T12:48:42;98222.44;;;27.05;61.73
57574;BME280;68988;49.000;21.242;2023-07-13T12:51:14;98221.25;;;27.11;61.29
57574;BME280;68988;49.000;21.242;2023-07-13T12:53:46;98214.28;;;27.10;61.32
57574;BME280;68988;49.000;21.242;2023-07-13T12:56:21;98222.25;;;27.15;61.08
57574;BME280;68988;49.000;21.242;2023-07-13T12:58:48;98217.16;;;27.13;61.27
57574;BME280;68988;49.000;21.242;2023-07-13T13:01:20;98218.47;;;27.16;61.09
57574;BME280;68988;49.000;21.242;2023-07-13T13:03:48;98221.16;;;27.16;60.78
57574;BME280;68988;49.000;21.242;2023-07-13T13:08:45;98243.47;;;27.16;60.46
57574;BME280;68988;49.000;21.242;2023-07-13T13:11:10;98237.91;;;27.13;60.14
57574;BME280;68988;49.000;21.242;2023-07-13T13:13:36;98234.69;;;27.11;59.58
57574;BME280;68988;49.000;21.242;2023-07-13T13:16:32;98242.16;;;27.14;59.16
57574;BME280;68988;49.000;21.242;2023-07-13T13:19:45;98244.38;;;27.12;59.56
57574;BME280;68988;49.000;21.242;2023-07-13T13:21:47;98246.66;;;27.05;59.10
57574;BME280;68988;49.000;21.242;2023-07-13T13:24:17;98247.66;;;27.09;58.80
57574;BME280;68988;49.000;21.242;2023-07-13T13:26:45;98246.56;;;27.10;58.83
57574;BME280;68988;49.000;21.242;2023-07-13T13:29:17;98248.16;;;27.11;58.57
57574;BME280;68988;49.000;21.242;2023-07-13T13:31:43;98253.63;;;27.06;58.75
57574;BME280;68988;49.000;21.242;2023-07-13T13:34:13;98254.13;;;27.08;58.16
57574;BME280;68988;49.000;21.242;2023-07-13T13:36:40;98265.47;;;27.05;58.35